sensor_id;sensor_type;location;lat;lon;timestamp;P1;durP1;ratioP1;P2;durP2;ratioP2
25980;SDS011;13772;52.996;9.124;2022-12-10T08:27:41;24.23;;;17.90;;
25980;SDS011;13772;52.996;9.124;2022-12-10T08:30:06;22.13;;;16.27;;
25980;SDS011;13772;52.996;9.124;2022-12-10T08:32:32;24.70;;;16.63;;
25980;SDS011;13772;52.996;9.124;2022-12-10T08:34:57;22.90;;;16.10;;
25980;SDS011;13772;52.996;9.124;2022-12-10T08:37:22;25.48;;;15.88;;
25980;SDS011;13772;52.996;9.124;2022-12-10T08:39:48;24.88;;;15.85;;
25980;SDS011;13772;52.996;9.124;2022-12-10T08:42:13;26.38;;;15.90;;
25980;SDS011;13772;52.996;9.124;2022-12-10T08:44:38;28.65;;;16.88;;
25980;SDS011;13772;52.996;9.124;2022-12-10T08:47:03;26.58;;;15.95;;
25980;SDS011;13772;52.996;9.124;2022-12-10T08:49:29;28.27;;;16.60;;
25980;SDS011;13772;52.996;9.124;2022-12-10T08:51:54;30.08;;;17.20;;
25980;SDS011;13772;52.996;9.124;2022-12-10T08:54:19;31.40;;;17.85;;
25980;SDS011;13772;52.996;9.124;2022-12-10T08:56:44;31.45;;;17.80;;
25980;SDS011;13772;52.996;9.124;2022-12-10T08:59:10;31.10;;;16.73;;
25980;SDS011;13772;52.996;9.124;2022-12-10T09:01:35;36.50;;;17.45;;
25980;SDS011;13772;52.996;9.124;2022-12-10T09:04:00;29.70;;;15.88;;
25980;SDS011;13772;52.996;9.124;2022-12-10T09:06:26;28.35;;;15.57;;
25980;SDS011;13772;52.996;9.124;2022-12-10T09:08:52;27.67;;;15.35;;
25980;SDS011;13772;52.996;9.124;2022-12-10T09:11:19;27.98;;;16.13;;
25980;SDS011;13772;52.996;9.124;2022-12-10T09:13:45;27.75;;;14.88;;
25980;SDS011;13772;52.996;9.124;2022-12-10T09:16:10;30.88;;;16.17;;
25980;SDS011;13772;52.996;9.124;2022-12-10T09:18:35;30.98;;;15.98;;
25980;SDS011;13772;52.996;9.124;2022-12-10T09:21:04;31.08;;;15.82;;
25980;SDS011;13772;52.996;9.124;2022-12-10T09:23:30;29.25;;;14.32;;
25980;SDS011;13772;52.996;9.124;2022-12-10T09:25:55;28.50;;;15.10;;
25980;SDS011;13772;52.996;9.124;2022-12-10T09:28:21;28.95;;;15.30;;
25980;SDS011;13772;52.996;9.124;2022-12-10T09:30:54;27.42;;;15.95;;
25980;SDS011;13772;52.996;9.124;2022-12-10T09:33:19;26.35;;;14.98;;
25980;SDS011;13772;52.996;9.124;2022-12-10T09:35:44;33.40;;;15.32;;
25980;SDS011;13772;52.996;9.124;2022-12-10T09:38:10;28.20;;;14.43;;
25980;SDS011;13772;52.996;9.124;2022-12-10T09:40:38;28.38;;;14.18;;
25980;SDS011;13772;52.996;9.124;2022-12-10T09:43:16;26.90;;;14.73;;
25980;SDS011;13772;52.996;9.124;2022-12-10T09:45:51;29.17;;;13.85;;
25980;SDS011;13772;52.996;9.124;2022-12-10T09:53:25;20.10;;;10.70;;
25980;SDS011;13772;52.996;9.124;2022-12-10T09:55:53;22.58;;;11.73;;
25980;SDS011;13772;52.996;9.124;2022-12-10T09:58:21;22.83;;;10.35;;
25980;SDS011;13772;52.996;9.124;2022-12-10T10:00:48;20.63;;;10.93;;
25980;SDS011;13772;52.996;9.124;2022-12-10T10:03:15;20.55;;;10.57;;
25980;SDS011;13772;52.996;9.124;2022-12-10T10:05:42;22.17;;;12.00;;
25980;SDS011;13772;52.996;9.124;2022-12-10T10:08:28;22.17;;;11.40;;
25980;SDS011;13772;52.996;9.124;2022-12-10T10:10:54;31.60;;;16.05;;
25980;SDS011;13772;52.996;9.124;2022-12-10T10:15:51;19.90;;;10.93;;
25980;SDS011;13772;52.996;9.124;2022-12-10T10:18:21;18.83;;;10.60;;
25980;SDS011;13772;52.996;9.124;2022-12-10T10:20:48;19.40;;;9.55;;
25980;SDS011;13772;52.996;9.124;2022-12-10T10:23:14;19.20;;;10.75;;
25980;SDS011;13772;52.996;9.124;2022-12-10T10:25:40;20.33;;;9.38;;
25980;SDS011;13772;52.996;9.124;2022-12-10T10:28:05;16.35;;;8.90;;
25980;SDS011;13772;52.996;9.124;2022-12-10T10:30:31;19.60;;;9.88;;
25980;SDS011;13772;52.996;9.124;2022-12-10T10:32:56;21.93;;;11.47;;
25980;SDS011;13772;52.996;9.124;2022-12-10T10:35:29;23.50;;;12.67;;
25980;SDS011;13772;52.996;9.124;2022-12-10T10:37:59;23.17;;;11.02;;
25980;SDS011;13772;52.996;9.124;2022-12-10T10:40:27;21.25;;;10.88;;
25980;SDS011;13772;52.996;9.124;2022-12-10T10:42:54;22.20;;;12.17;;
25980;SDS011;13772;52.996;9.124;2022-12-10T10:45:54;21.10;;;11.68;;
25980;SDS011;13772;52.996;9.124;2022-12-10T10:48:19;23.48;;;12.70;;
25980;SDS011;13772;52.996;9.124;2022-12-10T10:50:52;24.70;;;12.57;;
25980;SDS011;13772;52.996;9.124;2022-12-10T10:53:26;19.53;;;11.17;;
25980;SDS011;13772;52.996;9.124;2022-12-10T10:55:53;20.58;;;11.15;;
25980;SDS011;13772;52.996;9.124;2022-12-10T10:58:19;19.80;;;10.93;;
25980;SDS011;13772;52.996;9.124;2022-12-10T11:03:19;21.53;;;11.47;;
25980;SDS011;13772;52.996;9.124;2022-12-10T11:05:46;20.33;;;11.30;;
25980;SDS011;13772;52.996;9.124;2022-12-10T11:08:13;17.58;;;9.30;;
25980;SDS011;13772;52.996;9.124;2022-12-10T11:10:48;17.45;;;9.35;;
25980;SDS011;13772;52.996;9.124;2022-12-10T11:13:24;14.20;;;8.32;;
25980;SDS011;13772;52.996;9.124;2022-12-10T11:15:58;17.10;;;8.57;;
25980;SDS011;13772;52.996;9.124;2022-12-10T11:18:34;18.80;;;9.85;;
25980;SDS011;13772;52.996;9.124;2022-12-10T11:21:01;20.80;;;10.47;;
25980;SDS011;13772;52.996;9.124;2022-12-10T11:23:31;13.73;;;6.68;;
25980;SDS011;13772;52.996;9.124;2022-12-10T11:30:59;17.48;;;8.43;;
25980;SDS011;13772;52.996;9.124;2022-12-10T11:33:30;15.83;;;8.23;;
25980;SDS011;13772;52.996;9.124;2022-12-10T11:38:32;17.33;;;8.53;;
25980;SDS011;13772;52.996;9.124;2022-12-10T11:41:02;18.63;;;9.63;;
25980;SDS011;13772;52.996;9.124;2022-12-10T11:46:16;18.17;;;9.93;;
25980;SDS011;13772;52.996;9.124;2022-12-10T11:51:25;17.70;;;9.23;;
25980;SDS011;13772;52.996;9.124;2022-12-10T11:54:06;15.75;;;8.30;;
25980;SDS011;13772;52.996;9.124;2022-12-10T11:56:36;14.23;;;8.38;;
25980;SDS011;13772;52.996;9.124;2022-12-10T11:59:13;12.67;;;7.10;;
25980;SDS011;13772;52.996;9.124;2022-12-10T12:01:47;12.47;;;6.47;;
25980;SDS011;13772;52.996;9.124;2022-12-10T12:04:27;11.50;;;6.67;;
25980;SDS011;13772;52.996;9.124;2022-12-10T12:14:44;12.10;;;6.65;;
25980;SDS011;13772;52.996;9.124;2022-12-10T12:17:21;15.27;;;7.40;;
25980;SDS011;13772;52.996;9.124;2022-12-10T12:19:50;14.87;;;7.57;;
25980;SDS011;13772;52.996;9.124;2022-12-10T12:22:22;15.88;;;7.95;;
25980;SDS011;13772;52.996;9.124;2022-12-10T12:24:48;14.60;;;8.20;;
25980;SDS011;13772;52.996;9.124;2022-12-10T12:27:18;19.65;;;9.77;;
25980;SDS011;13772;52.996;9.124;2022-12-10T12:32:19;20.55;;;11.90;;
25980;SDS011;13772;52.996;9.124;2022-12-10T12:37:24;20.67;;;12.57;;
25980;SDS011;13772;52.996;9.124;2022-12-10T12:40:02;25.47;;;13.30;;
25980;SDS011;13772;52.996;9.124;2022-12-10T12:42:45;25.50;;;13.55;;
25980;SDS011;13772;52.996;9.124;2022-12-10T12:45:19;27.33;;;12.90;;
25980;SDS011;13772;52.996;9.124;2022-12-10T12:50:41;21.63;;;11.20;;
25980;SDS011;13772;52.996;9.124;2022-12-10T12:53:09;16.02;;;8.25;;
25980;SDS011;13772;52.996;9.124;2022-12-10T12:55:43;17.57;;;9.70;;
25980;SDS011;13772;52.996;9.124;2022-12-10T13:00:35;17.53;;;10.20;;
25980;SDS011;13772;52.996;9.124;2022-12-10T13:03:07;18.33;;;10.00;;
25980;SDS011;13772;52.996;9.124;2022-12-10T13:05:38;26.77;;;10.47;;
25980;SDS011;13772;52.996;9.124;2022-12-10T13:10:56;21.00;;;10.38;;
25980;SDS011;13772;52.996;9.124;2022-12-10T13:15:53;16.90;;;8.90;;
25980;SDS011;13772;52.996;9.124;2022-12-10T13:18:21;17.33;;;9.00;;
25980;SDS011;13772;52.996;9.124;2022-12-10T13:20:47;17.73;;;9.07;;
25980;SDS011;13772;52.996;9.124;2022-12-10T13:36:23;15.57;;;8.47;;
25980;SDS011;13772;52.996;9.124;2022-12-10T13:38:56;15.17;;;9.23;;
25980;SDS011;13772;52.996;9.124;2022-12-10T13:41:22;15.23;;;8.87;;
25980;SDS011;13772;52.996;9.124;2022-12-10T13:44:24;19.53;;;10.37;;
25980;SDS011;13772;52.996;9.124;2022-12-10T13:46:54;16.53;;;9.27;;
25980;SDS011;13772;52.996;9.124;2022-12-10T13:49:23;19.23;;;9.63;;
25980;SDS011;13772;52.996;9.124;2022-12-10T13:59:24;17.80;;;10.47;;
25980;SDS011;13772;52.996;9.124;2022-12-10T14:01:56;21.13;;;10.05;;
25980;SDS011;13772;52.996;9.124;2022-12-10T14:04:31;19.70;;;10.17;;
25980;SDS011;13772;52.996;9.124;2022-12-10T14:06:57;19.95;;;10.63;;
25980;SDS011;13772;52.996;9.124;2022-12-10T14:09:25;18.33;;;10.37;;
25980;SDS011;13772;52.996;9.124;2022-12-10T14:11:58;17.43;;;10.13;;
25980;SDS011;13772;52.996;9.124;2022-12-10T14:14:29;16.60;;;9.00;;
25980;SDS011;13772;52.996;9.124;2022-12-10T14:16:59;17.30;;;10.47;;
25980;SDS011;13772;52.996;9.124;2022-12-10T14:19:24;15.53;;;8.70;;
25980;SDS011;13772;52.996;9.124;2022-12-10T14:21:51;18.27;;;9.83;;
25980;SDS011;13772;52.996;9.124;2022-12-10T14:27:19;14.30;;;8.07;;
25980;SDS011;13772;52.996;9.124;2022-12-10T14:29:49;17.17;;;9.50;;
25980;SDS011;13772;52.996;9.124;2022-12-10T14:32:18;14.77;;;8.40;;
25980;SDS011;13772;52.996;9.124;2022-12-10T14:34:52;14.73;;;9.10;;
25980;SDS011;13772;52.996;9.124;2022-12-10T14:37:17;15.67;;;8.07;;
25980;SDS011;13772;52.996;9.124;2022-12-10T14:39:44;17.63;;;9.17;;
25980;SDS011;13772;52.996;9.124;2022-12-10T14:42:11;17.53;;;9.37;;
25980;SDS011;13772;52.996;9.124;2022-12-10T14:44:38;18.23;;;9.30;;
25980;SDS011;13772;52.996;9.124;2022-12-10T14:47:05;16.23;;;9.30;;
25980;SDS011;13772;52.996;9.124;2022-12-10T14:49:30;17.03;;;8.70;;
25980;SDS011;13772;52.996;9.124;2022-12-10T14:51:56;15.97;;;9.27;;
25980;SDS011;13772;52.996;9.124;2022-12-10T14:54:29;17.75;;;8.63;;
25980;SDS011;13772;52.996;9.124;2022-12-10T14:56:56;17.03;;;9.47;;
25980;SDS011;13772;52.996;9.124;2022-12-10T14:59:28;15.83;;;9.10;;
25980;SDS011;13772;52.996;9.124;2022-12-10T15:01:56;17.03;;;9.47;;
25980;SDS011;13772;52.996;9.124;2022-12-10T15:04:23;17.93;;;9.97;;
25980;SDS011;13772;52.996;9.124;2022-12-10T15:06:51;16.47;;;9.83;;
25980;SDS011;13772;52.996;9.124;2022-12-10T15:09:20;22.73;;;10.67;;
25980;SDS011;13772;52.996;9.124;2022-12-10T15:11:53;18.93;;;10.40;;
25980;SDS011;13772;52.996;9.124;2022-12-10T15:14:19;19.40;;;10.47;;
25980;SDS011;13772;52.996;9.124;2022-12-10T15:16:45;20.23;;;11.63;;
25980;SDS011;13772;52.996;9.124;2022-12-10T15:21:42;20.57;;;11.87;;
25980;SDS011;13772;52.996;9.124;2022-12-10T15:26:33;16.87;;;9.97;;
25980;SDS011;13772;52.996;9.124;2022-12-10T15:31:40;18.37;;;10.10;;
25980;SDS011;13772;52.996;9.124;2022-12-10T15:34:07;19.50;;;10.57;;
25980;SDS011;13772;52.996;9.124;2022-12-10T15:36:43;20.60;;;11.60;;
25980;SDS011;13772;52.996;9.124;2022-12-10T15:41:44;20.03;;;11.10;;
25980;SDS011;13772;52.996;9.124;2022-12-10T15:44:18;21.13;;;11.80;;
25980;SDS011;13772;52.996;9.124;2022-12-10T15:46:47;21.13;;;12.30;;
25980;SDS011;13772;52.996;9.124;2022-12-10T15:49:12;22.08;;;12.80;;
25980;SDS011;13772;52.996;9.124;2022-12-10T15:51:38;23.03;;;12.50;;
25980;SDS011;13772;52.996;9.124;2022-12-10T15:54:12;23.90;;;13.47;;
25980;SDS011;13772;52.996;9.124;2022-12-10T15:56:37;23.57;;;13.87;;
25980;SDS011;13772;52.996;9.124;2022-12-10T15:59:03;24.60;;;14.80;;
25980;SDS011;13772;52.996;9.124;2022-12-10T16:01:28;28.10;;;15.60;;
25980;SDS011;13772;52.996;9.124;2022-12-10T16:03:53;27.17;;;14.83;;
25980;SDS011;13772;52.996;9.124;2022-12-10T16:06:18;29.17;;;16.70;;
25980;SDS011;13772;52.996;9.124;2022-12-10T16:08:44;26.97;;;16.47;;
25980;SDS011;13772;52.996;9.124;2022-12-10T16:11:15;27.53;;;16.77;;
25980;SDS011;13772;52.996;9.124;2022-12-10T16:13:41;29.63;;;17.83;;
25980;SDS011;13772;52.996;9.124;2022-12-10T16:16:10;24.67;;;15.00;;
25980;SDS011;13772;52.996;9.124;2022-12-10T16:18:36;25.60;;;14.67;;
25980;SDS011;13772;52.996;9.124;2022-12-10T16:21:02;27.27;;;15.43;;
25980;SDS011;13772;52.996;9.124;2022-12-10T16:23:28;25.20;;;15.27;;
25980;SDS011;13772;52.996;9.124;2022-12-10T16:25:53;26.23;;;15.90;;
25980;SDS011;13772;52.996;9.124;2022-12-10T16:28:20;27.87;;;14.97;;
25980;SDS011;13772;52.996;9.124;2022-12-10T16:33:12;27.63;;;15.87;;
25980;SDS011;13772;52.996;9.124;2022-12-10T16:35:37;27.07;;;15.23;;
25980;SDS011;13772;52.996;9.124;2022-12-10T16:38:02;26.10;;;15.63;;
25980;SDS011;13772;52.996;9.124;2022-12-10T16:40:29;26.77;;;15.80;;
25980;SDS011;13772;52.996;9.124;2022-12-10T16:42:55;28.07;;;15.50;;
25980;SDS011;13772;52.996;9.124;2022-12-10T16:45:24;23.10;;;14.07;;
25980;SDS011;13772;52.996;9.124;2022-12-10T16:47:50;24.87;;;14.80;;
25980;SDS011;13772;52.996;9.124;2022-12-10T16:50:16;24.03;;;13.87;;
25980;SDS011;13772;52.996;9.124;2022-12-10T16:52:41;24.47;;;14.30;;
25980;SDS011;13772;52.996;9.124;2022-12-10T16:55:09;24.43;;;13.57;;
25980;SDS011;13772;52.996;9.124;2022-12-10T16:57:36;25.48;;;14.60;;
25980;SDS011;13772;52.996;9.124;2022-12-10T17:00:01;22.70;;;13.47;;
25980;SDS011;13772;52.996;9.124;2022-12-10T17:02:28;22.77;;;13.47;;
25980;SDS011;13772;52.996;9.124;2022-12-10T17:04:53;25.10;;;13.50;;
25980;SDS011;13772;52.996;9.124;2022-12-10T17:07:18;25.73;;;13.93;;
25980;SDS011;13772;52.996;9.124;2022-12-10T17:09:44;23.87;;;14.33;;
25980;SDS011;13772;52.996;9.124;2022-12-10T17:12:10;23.93;;;14.00;;
25980;SDS011;13772;52.996;9.124;2022-12-10T17:14:39;25.13;;;14.13;;
25980;SDS011;13772;52.996;9.124;2022-12-10T17:17:10;22.03;;;13.53;;
25980;SDS011;13772;52.996;9.124;2022-12-10T17:19:36;25.80;;;15.00;;
25980;SDS011;13772;52.996;9.124;2022-12-10T17:22:02;26.30;;;15.03;;
25980;SDS011;13772;52.996;9.124;2022-12-10T17:24:28;22.77;;;14.10;;
25980;SDS011;13772;52.996;9.124;2022-12-10T17:26:54;23.20;;;13.93;;
25980;SDS011;13772;52.996;9.124;2022-12-10T17:29:30;24.23;;;14.43;;
25980;SDS011;13772;52.996;9.124;2022-12-10T17:31:56;25.93;;;14.43;;
25980;SDS011;13772;52.996;9.124;2022-12-10T17:34:22;24.27;;;14.00;;
25980;SDS011;13772;52.996;9.124;2022-12-10T17:36:49;23.13;;;12.80;;
25980;SDS011;13772;52.996;9.124;2022-12-10T17:39:15;24.30;;;13.93;;
25980;SDS011;13772;52.996;9.124;2022-12-10T17:41:41;24.20;;;13.97;;
25980;SDS011;13772;52.996;9.124;2022-12-10T17:44:06;23.60;;;12.80;;
25980;SDS011;13772;52.996;9.124;2022-12-10T17:46:32;23.20;;;13.33;;
25980;SDS011;13772;52.996;9.124;2022-12-10T17:48:57;24.13;;;13.33;;
25980;SDS011;13772;52.996;9.124;2022-12-10T17:51:22;23.43;;;12.90;;
25980;SDS011;13772;52.996;9.124;2022-12-10T17:53:48;22.80;;;12.87;;
25980;SDS011;13772;52.996;9.124;2022-12-10T17:56:14;25.83;;;14.40;;
25980;SDS011;13772;52.996;9.124;2022-12-10T17:58:40;26.27;;;14.60;;
25980;SDS011;13772;52.996;9.124;2022-12-10T18:01:06;22.97;;;13.90;;
25980;SDS011;13772;52.996;9.124;2022-12-10T18:03:31;26.13;;;14.67;;
25980;SDS011;13772;52.996;9.124;2022-12-10T18:05:57;25.17;;;13.87;;
25980;SDS011;13772;52.996;9.124;2022-12-10T18:08:22;26.00;;;14.03;;
25980;SDS011;13772;52.996;9.124;2022-12-10T18:10:48;24.30;;;14.30;;
25980;SDS011;13772;52.996;9.124;2022-12-10T18:13:14;23.30;;;13.77;;
25980;SDS011;13772;52.996;9.124;2022-12-10T18:15:39;22.23;;;13.50;;
25980;SDS011;13772;52.996;9.124;2022-12-10T18:18:06;24.00;;;13.47;;
25980;SDS011;13772;52.996;9.124;2022-12-10T18:20:33;26.63;;;14.00;;
25980;SDS011;13772;52.996;9.124;2022-12-10T18:22:59;23.53;;;13.07;;
25980;SDS011;13772;52.996;9.124;2022-12-10T18:25:25;24.17;;;13.13;;
25980;SDS011;13772;52.996;9.124;2022-12-10T18:27:51;21.87;;;13.63;;
25980;SDS011;13772;52.996;9.124;2022-12-10T18:30:21;22.47;;;12.63;;
25980;SDS011;13772;52.996;9.124;2022-12-10T18:32:47;22.20;;;13.10;;
25980;SDS011;13772;52.996;9.124;2022-12-10T18:35:13;25.40;;;13.30;;
25980;SDS011;13772;52.996;9.124;2022-12-10T18:37:38;23.40;;;13.67;;
25980;SDS011;13772;52.996;9.124;2022-12-10T18:40:04;21.17;;;12.80;;
25980;SDS011;13772;52.996;9.124;2022-12-10T18:42:30;21.10;;;13.20;;
25980;SDS011;13772;52.996;9.124;2022-12-10T18:44:56;24.00;;;12.90;;
25980;SDS011;13772;52.996;9.124;2022-12-10T18:47:21;23.97;;;13.53;;
25980;SDS011;13772;52.996;9.124;2022-12-10T18:49:46;19.93;;;12.77;;
25980;SDS011;13772;52.996;9.124;2022-12-10T18:52:11;20.60;;;12.37;;
25980;SDS011;13772;52.996;9.124;2022-12-10T18:54:37;21.37;;;11.77;;
25980;SDS011;13772;52.996;9.124;2022-12-10T18:57:02;24.00;;;13.10;;
25980;SDS011;13772;52.996;9.124;2022-12-10T18:59:27;20.93;;;12.80;;
25980;SDS011;13772;52.996;9.124;2022-12-10T19:01:53;22.87;;;12.33;;
25980;SDS011;13772;52.996;9.124;2022-12-10T19:04:18;20.33;;;12.40;;
25980;SDS011;13772;52.996;9.124;2022-12-10T19:06:43;21.80;;;12.53;;
25980;SDS011;13772;52.996;9.124;2022-12-10T19:09:15;22.53;;;12.90;;
25980;SDS011;13772;52.996;9.124;2022-12-10T19:11:41;23.70;;;13.03;;
25980;SDS011;13772;52.996;9.124;2022-12-10T19:14:06;22.27;;;12.73;;
25980;SDS011;13772;52.996;9.124;2022-12-10T19:16:32;22.97;;;12.73;;
25980;SDS011;13772;52.996;9.124;2022-12-10T19:18:57;24.60;;;12.33;;
25980;SDS011;13772;52.996;9.124;2022-12-10T19:21:26;23.60;;;12.13;;
25980;SDS011;13772;52.996;9.124;2022-12-10T19:23:51;22.70;;;13.43;;
25980;SDS011;13772;52.996;9.124;2022-12-10T19:28:44;25.50;;;13.50;;
25980;SDS011;13772;52.996;9.124;2022-12-10T19:31:11;19.77;;;11.17;;
25980;SDS011;13772;52.996;9.124;2022-12-10T19:33:37;22.63;;;12.30;;
25980;SDS011;13772;52.996;9.124;2022-12-10T19:36:02;21.23;;;12.23;;
25980;SDS011;13772;52.996;9.124;2022-12-10T19:38:27;23.90;;;13.53;;
25980;SDS011;13772;52.996;9.124;2022-12-10T19:40:52;23.67;;;13.50;;
25980;SDS011;13772;52.996;9.124;2022-12-10T19:43:18;22.30;;;12.27;;
25980;SDS011;13772;52.996;9.124;2022-12-10T19:45:43;21.17;;;13.03;;
25980;SDS011;13772;52.996;9.124;2022-12-10T19:48:08;23.37;;;12.23;;
25980;SDS011;13772;52.996;9.124;2022-12-10T19:50:33;22.57;;;12.93;;
25980;SDS011;13772;52.996;9.124;2022-12-10T19:53:02;26.27;;;14.35;;
25980;SDS011;13772;52.996;9.124;2022-12-10T19:55:28;23.83;;;12.63;;
25980;SDS011;13772;52.996;9.124;2022-12-10T19:57:53;24.70;;;14.23;;
25980;SDS011;13772;52.996;9.124;2022-12-10T20:00:20;22.57;;;13.50;;
25980;SDS011;13772;52.996;9.124;2022-12-10T20:02:46;23.80;;;14.10;;
25980;SDS011;13772;52.996;9.124;2022-12-10T20:05:11;23.83;;;13.20;;
25980;SDS011;13772;52.996;9.124;2022-12-10T20:07:37;21.60;;;12.63;;
25980;SDS011;13772;52.996;9.124;2022-12-10T20:10:03;21.40;;;12.53;;
25980;SDS011;13772;52.996;9.124;2022-12-10T20:12:28;22.23;;;12.47;;
25980;SDS011;13772;52.996;9.124;2022-12-10T20:14:53;22.60;;;13.03;;
25980;SDS011;13772;52.996;9.124;2022-12-10T20:17:19;22.73;;;12.77;;
25980;SDS011;13772;52.996;9.124;2022-12-10T20:22:14;23.87;;;13.60;;
25980;SDS011;13772;52.996;9.124;2022-12-10T20:24:39;23.17;;;12.37;;
25980;SDS011;13772;52.996;9.124;2022-12-10T20:27:05;20.77;;;12.10;;
25980;SDS011;13772;52.996;9.124;2022-12-10T20:29:30;23.20;;;13.60;;
25980;SDS011;13772;52.996;9.124;2022-12-10T20:31:56;23.53;;;13.47;;
25980;SDS011;13772;52.996;9.124;2022-12-10T20:34:22;22.20;;;12.73;;
25980;SDS011;13772;52.996;9.124;2022-12-10T20:36:48;22.50;;;12.83;;
25980;SDS011;13772;52.996;9.124;2022-12-10T20:39:15;22.57;;;12.00;;
25980;SDS011;13772;52.996;9.124;2022-12-10T20:41:42;23.03;;;13.30;;
25980;SDS011;13772;52.996;9.124;2022-12-10T20:44:07;21.80;;;12.90;;
25980;SDS011;13772;52.996;9.124;2022-12-10T20:46:33;19.87;;;12.33;;
25980;SDS011;13772;52.996;9.124;2022-12-10T20:48:59;21.00;;;13.10;;
25980;SDS011;13772;52.996;9.124;2022-12-10T20:51:24;19.10;;;12.00;;
25980;SDS011;13772;52.996;9.124;2022-12-10T20:53:49;20.47;;;12.60;;
25980;SDS011;13772;52.996;9.124;2022-12-10T20:56:16;19.47;;;11.93;;
25980;SDS011;13772;52.996;9.124;2022-12-10T20:58:42;20.77;;;12.33;;
25980;SDS011;13772;52.996;9.124;2022-12-10T21:01:07;21.43;;;12.77;;
25980;SDS011;13772;52.996;9.124;2022-12-10T21:03:33;20.53;;;12.00;;
25980;SDS011;13772;52.996;9.124;2022-12-10T21:05:58;20.53;;;11.43;;
25980;SDS011;13772;52.996;9.124;2022-12-10T21:08:24;19.93;;;11.53;;
25980;SDS011;13772;52.996;9.124;2022-12-10T21:10:49;17.80;;;11.10;;
25980;SDS011;13772;52.996;9.124;2022-12-10T21:13:15;21.00;;;11.67;;
25980;SDS011;13772;52.996;9.124;2022-12-10T21:15:40;22.63;;;12.87;;
25980;SDS011;13772;52.996;9.124;2022-12-10T21:18:07;20.70;;;12.00;;
25980;SDS011;13772;52.996;9.124;2022-12-10T21:20:32;18.50;;;10.77;;
25980;SDS011;13772;52.996;9.124;2022-12-10T21:22:58;18.57;;;11.70;;
25980;SDS011;13772;52.996;9.124;2022-12-10T21:25:23;17.90;;;11.47;;
25980;SDS011;13772;52.996;9.124;2022-12-10T21:27:49;18.83;;;11.07;;
25980;SDS011;13772;52.996;9.124;2022-12-10T21:30:14;17.07;;;10.50;;
25980;SDS011;13772;52.996;9.124;2022-12-10T21:32:39;19.30;;;12.30;;
25980;SDS011;13772;52.996;9.124;2022-12-10T21:35:04;20.77;;;12.30;;
25980;SDS011;13772;52.996;9.124;2022-12-10T21:37:30;29.00;;;16.10;;
25980;SDS011;13772;52.996;9.124;2022-12-10T21:39:55;21.63;;;12.57;;
25980;SDS011;13772;52.996;9.124;2022-12-10T21:42:21;19.90;;;11.97;;
25980;SDS011;13772;52.996;9.124;2022-12-10T21:45:05;20.03;;;11.70;;
25980;SDS011;13772;52.996;9.124;2022-12-10T21:47:30;20.27;;;11.33;;
25980;SDS011;13772;52.996;9.124;2022-12-10T21:49:56;19.90;;;11.90;;
25980;SDS011;13772;52.996;9.124;2022-12-10T21:52:21;19.60;;;11.70;;
25980;SDS011;13772;52.996;9.124;2022-12-10T21:54:46;18.87;;;11.53;;
25980;SDS011;13772;52.996;9.124;2022-12-10T21:57:11;18.80;;;11.00;;
25980;SDS011;13772;52.996;9.124;2022-12-10T21:59:37;16.17;;;10.70;;
25980;SDS011;13772;52.996;9.124;2022-12-10T22:02:02;18.53;;;11.27;;
25980;SDS011;13772;52.996;9.124;2022-12-10T22:04:27;20.37;;;11.73;;
25980;SDS011;13772;52.996;9.124;2022-12-10T22:06:53;20.33;;;11.90;;
25980;SDS011;13772;52.996;9.124;2022-12-10T22:09:18;17.57;;;11.13;;
25980;SDS011;13772;52.996;9.124;2022-12-10T22:11:43;17.93;;;12.00;;
25980;SDS011;13772;52.996;9.124;2022-12-10T22:14:09;20.40;;;11.13;;
25980;SDS011;13772;52.996;9.124;2022-12-10T22:16:34;18.90;;;12.13;;
25980;SDS011;13772;52.996;9.124;2022-12-10T22:18:59;20.60;;;12.17;;
25980;SDS011;13772;52.996;9.124;2022-12-10T22:21:24;20.73;;;12.20;;
25980;SDS011;13772;52.996;9.124;2022-12-10T22:23:50;20.63;;;11.93;;
25980;SDS011;13772;52.996;9.124;2022-12-10T22:26:16;19.60;;;11.40;;
25980;SDS011;13772;52.996;9.124;2022-12-10T22:28:41;19.90;;;11.60;;
25980;SDS011;13772;52.996;9.124;2022-12-10T22:31:07;19.60;;;11.90;;
25980;SDS011;13772;52.996;9.124;2022-12-10T22:33:33;20.30;;;11.27;;
25980;SDS011;13772;52.996;9.124;2022-12-10T22:35:58;20.47;;;11.37;;
